sensor_id;sensor_type;location;lat;lon;timestamp;temperature;humidity
75281;HTU21D;63874;47.230;39.620;2022-12-29T00:00:09;3.43;73.32
75281;HTU21D;63874;47.230;39.620;2022-12-29T00:02:38;3.40;73.80
75281;HTU21D;63874;47.230;39.620;2022-12-29T00:05:04;3.40;73.26
75281;HTU21D;63874;47.230;39.620;2022-12-29T00:07:30;3.35;73.60
75281;HTU21D;63874;47.230;39.620;2022-12-29T00:09:56;3.33;74.07
75281;HTU21D;63874;47.230;39.620;2022-12-29T00:12:22;3.33;74.12
75281;HTU21D;63874;47.230;39.620;2022-12-29T00:14:48;3.34;73.90
75281;HTU21D;63874;47.230;39.620;2022-12-29T00:17:32;3.39;73.83
75281;HTU21D;63874;47.230;39.620;2022-12-29T00:19:58;3.40;73.78
75281;HTU21D;63874;47.230;39.620;2022-12-29T00:22:42;3.42;73.82
75281;HTU21D;63874;47.230;39.620;2022-12-29T00:25:27;3.45;73.38
75281;HTU21D;63874;47.230;39.620;2022-12-29T00:28:11;3.44;73.77
75281;HTU21D;63874;47.230;39.620;2022-12-29T00:30:59;3.44;73.65
75281;HTU21D;63874;47.230;39.620;2022-12-29T00:33:43;3.44;73.69
75281;HTU21D;63874;47.230;39.620;2022-12-29T00:36:31;3.41;73.83
75281;HTU21D;63874;47.230;39.620;2022-12-29T00:39:02;3.41;73.77
75281;HTU21D;63874;47.230;39.620;2022-12-29T00:41:47;3.40;73.94
75281;HTU21D;63874;47.230;39.620;2022-12-29T00:44:32;3.40;73.94
75281;HTU21D;63874;47.230;39.620;2022-12-29T00:46:58;3.39;73.70
75281;HTU21D;63874;47.230;39.620;2022-12-29T00:49:27;3.35;73.97
75281;HTU21D;63874;47.230;39.620;2022-12-29T00:54:30;3.32;74.14
75281;HTU21D;63874;47.230;39.620;2022-12-29T00:57:14;3.33;74.04
75281;HTU21D;63874;47.230;39.620;2022-12-29T00:59:41;3.33;73.76
75281;HTU21D;63874;47.230;39.620;2022-12-29T01:02:08;3.29;73.95
75281;HTU21D;63874;47.230;39.620;2022-12-29T01:04:34;3.26;74.20
75281;HTU21D;63874;47.230;39.620;2022-12-29T01:07:00;3.27;74.12
75281;HTU21D;63874;47.230;39.620;2022-12-29T01:09:26;3.29;73.99
75281;HTU21D;63874;47.230;39.620;2022-12-29T01:12:11;3.30;73.61
75281;HTU21D;63874;47.230;39.620;2022-12-29T01:14:37;3.26;74.12
75281;HTU21D;63874;47.230;39.620;2022-12-29T01:17:04;3.23;74.26
75281;HTU21D;63874;47.230;39.620;2022-12-29T01:19:30;3.20;74.28
75281;HTU21D;63874;47.230;39.620;2022-12-29T01:21:56;3.21;74.27
75281;HTU21D;63874;47.230;39.620;2022-12-29T01:24:22;3.23;73.96
75281;HTU21D;63874;47.230;39.620;2022-12-29T01:26:48;3.17;74.17
75281;HTU21D;63874;47.230;39.620;2022-12-29T01:29:16;3.14;74.32
75281;HTU21D;63874;47.230;39.620;2022-12-29T01:31:44;3.13;74.46
75281;HTU21D;63874;47.230;39.620;2022-12-29T01:34:10;3.14;74.25
75281;HTU21D;63874;47.230;39.620;2022-12-29T01:36:37;3.13;74.22
75281;HTU21D;63874;47.230;39.620;2022-12-29T01:39:03;3.12;74.23
75281;HTU21D;63874;47.230;39.620;2022-12-29T01:41:29;3.10;73.97
75281;HTU21D;63874;47.230;39.620;2022-12-29T01:43:57;3.09;73.99
75281;HTU21D;63874;47.230;39.620;2022-12-29T01:46:40;3.08;74.12
75281;HTU21D;63874;47.230;39.620;2022-12-29T01:51:47;3.04;74.14
75281;HTU21D;63874;47.230;39.620;2022-12-29T01:54:42;3.06;73.44
75281;HTU21D;63874;47.230;39.620;2022-12-29T01:57:13;3.09;73.78
75281;HTU21D;63874;47.230;39.620;2022-12-29T01:59:45;3.06;73.70
75281;HTU21D;63874;47.230;39.620;2022-12-29T02:02:13;3.06;73.61
75281;HTU21D;63874;47.230;39.620;2022-12-29T02:04:59;3.05;73.64
75281;HTU21D;63874;47.230;39.620;2022-12-29T02:07:28;3.04;73.83
75281;HTU21D;63874;47.230;39.620;2022-12-29T02:09:55;3.03;73.86
75281;HTU21D;63874;47.230;39.620;2022-12-29T02:12:23;3.01;73.62
75281;HTU21D;63874;47.230;39.620;2022-12-29T02:14:53;3.03;73.83
75281;HTU21D;63874;47.230;39.620;2022-12-29T02:35:01;2.88;74.16
75281;HTU21D;63874;47.230;39.620;2022-12-29T02:43:22;2.83;74.44
75281;HTU21D;63874;47.230;39.620;2022-12-29T02:50:54;2.83;74.64
75281;HTU21D;63874;47.230;39.620;2022-12-29T02:53:23;2.85;74.36
75281;HTU21D;63874;47.230;39.620;2022-12-29T02:56:09;2.85;74.47
75281;HTU21D;63874;47.230;39.620;2022-12-29T02:58:35;2.82;74.54
75281;HTU21D;63874;47.230;39.620;2022-12-29T03:01:21;2.83;74.21
75281;HTU21D;63874;47.230;39.620;2022-12-29T03:04:02;2.79;74.48
75281;HTU21D;63874;47.230;39.620;2022-12-29T03:07:09;2.78;74.54
75281;HTU21D;63874;47.230;39.620;2022-12-29T03:09:36;2.76;74.41
75281;HTU21D;63874;47.230;39.620;2022-12-29T03:15:10;2.80;74.38
75281;HTU21D;63874;47.230;39.620;2022-12-29T03:18:10;2.79;74.38
75281;HTU21D;63874;47.230;39.620;2022-12-29T03:20:52;2.80;74.53
75281;HTU21D;63874;47.230;39.620;2022-12-29T03:23:22;2.78;74.51
75281;HTU21D;63874;47.230;39.620;2022-12-29T03:25:56;2.80;74.38
75281;HTU21D;63874;47.230;39.620;2022-12-29T03:28:25;2.82;74.38
75281;HTU21D;63874;47.230;39.620;2022-12-29T03:30:55;2.83;74.01
75281;HTU21D;63874;47.230;39.620;2022-12-29T03:33:25;2.85;73.80
75281;HTU21D;63874;47.230;39.620;2022-12-29T03:36:17;2.86;73.70
75281;HTU21D;63874;47.230;39.620;2022-12-29T03:38:49;2.90;73.10
75281;HTU21D;63874;47.230;39.620;2022-12-29T03:41:21;2.89;73.28
75281;HTU21D;63874;47.230;39.620;2022-12-29T03:44:07;2.85;73.41
75281;HTU21D;63874;47.230;39.620;2022-12-29T03:46:52;2.81;73.29
75281;HTU21D;63874;47.230;39.620;2022-12-29T03:49:18;2.79;73.57
75281;HTU21D;63874;47.230;39.620;2022-12-29T03:51:44;2.75;73.46
75281;HTU21D;63874;47.230;39.620;2022-12-29T03:54:11;2.71;73.64
75281;HTU21D;63874;47.230;39.620;2022-12-29T03:56:37;2.65;73.51
75281;HTU21D;63874;47.230;39.620;2022-12-29T03:59:03;2.55;73.65
75281;HTU21D;63874;47.230;39.620;2022-12-29T04:01:37;2.42;73.94
75281;HTU21D;63874;47.230;39.620;2022-12-29T04:04:03;2.30;74.28
75281;HTU21D;63874;47.230;39.620;2022-12-29T04:06:30;2.24;74.49
75281;HTU21D;63874;47.230;39.620;2022-12-29T04:09:03;2.16;74.64
75281;HTU21D;63874;47.230;39.620;2022-12-29T04:11:32;2.12;74.77
75281;HTU21D;63874;47.230;39.620;2022-12-29T04:13:59;2.08;74.89
75281;HTU21D;63874;47.230;39.620;2022-12-29T04:16:26;2.01;75.12
75281;HTU21D;63874;47.230;39.620;2022-12-29T04:18:52;2.00;75.10
75281;HTU21D;63874;47.230;39.620;2022-12-29T04:21:18;1.92;75.26
75281;HTU21D;63874;47.230;39.620;2022-12-29T04:24:03;1.87;75.43
75281;HTU21D;63874;47.230;39.620;2022-12-29T04:26:33;1.86;75.58
75281;HTU21D;63874;47.230;39.620;2022-12-29T04:29:07;1.79;75.69
75281;HTU21D;63874;47.230;39.620;2022-12-29T04:31:53;1.77;75.75
75281;HTU21D;63874;47.230;39.620;2022-12-29T04:34:21;1.76;75.92
75281;HTU21D;63874;47.230;39.620;2022-12-29T04:36:47;1.76;75.89
75281;HTU21D;63874;47.230;39.620;2022-12-29T04:39:13;1.75;75.89
75281;HTU21D;63874;47.230;39.620;2022-12-29T04:41:40;1.67;76.02
75281;HTU21D;63874;47.230;39.620;2022-12-29T04:44:09;1.66;76.06
75281;HTU21D;63874;47.230;39.620;2022-12-29T04:46:52;1.63;76.21
75281;HTU21D;63874;47.230;39.620;2022-12-29T04:49:30;1.62;76.22
75281;HTU21D;63874;47.230;39.620;2022-12-29T04:52:14;1.60;76.30
75281;HTU21D;63874;47.230;39.620;2022-12-29T04:54:42;1.61;76.34
75281;HTU21D;63874;47.230;39.620;2022-12-29T04:57:14;1.60;76.37
75281;HTU21D;63874;47.230;39.620;2022-12-29T05:00:00;1.60;76.43
75281;HTU21D;63874;47.230;39.620;2022-12-29T05:02:26;1.58;76.47
75281;HTU21D;63874;47.230;39.620;2022-12-29T05:04:53;1.58;76.45
75281;HTU21D;63874;47.230;39.620;2022-12-29T05:07:19;1.61;76.49
75281;HTU21D;63874;47.230;39.620;2022-12-29T05:09:45;1.58;76.39
75281;HTU21D;63874;47.230;39.620;2022-12-29T05:12:11;1.56;76.53
75281;HTU21D;63874;47.230;39.620;2022-12-29T05:14:45;1.55;76.72
75281;HTU21D;63874;47.230;39.620;2022-12-29T05:17:30;1.60;76.70
75281;HTU21D;63874;47.230;39.620;2022-12-29T05:19:56;1.62;76.68
75281;HTU21D;63874;47.230;39.620;2022-12-29T05:22:22;1.66;76.59
75281;HTU21D;63874;47.230;39.620;2022-12-29T05:24:48;1.70;76.54
75281;HTU21D;63874;47.230;39.620;2022-12-29T05:27:43;1.73;76.44
75281;HTU21D;63874;47.230;39.620;2022-12-29T05:30:17;1.76;76.40
75281;HTU21D;63874;47.230;39.620;2022-12-29T05:33:01;1.78;76.41
75281;HTU21D;63874;47.230;39.620;2022-12-29T05:35:48;1.81;76.44
75281;HTU21D;63874;47.230;39.620;2022-12-29T05:38:14;1.85;76.47
75281;HTU21D;63874;47.230;39.620;2022-12-29T05:40:41;1.86;76.54
75281;HTU21D;63874;47.230;39.620;2022-12-29T05:43:19;1.86;76.58
75281;HTU21D;63874;47.230;39.620;2022-12-29T05:46:08;1.83;76.63
75281;HTU21D;63874;47.230;39.620;2022-12-29T05:48:45;1.83;76.61
75281;HTU21D;63874;47.230;39.620;2022-12-29T05:51:48;1.79;76.62
75281;HTU21D;63874;47.230;39.620;2022-12-29T05:54:34;1.78;76.54
75281;HTU21D;63874;47.230;39.620;2022-12-29T05:57:01;1.75;76.59
75281;HTU21D;63874;47.230;39.620;2022-12-29T05:59:28;1.72;76.63
75281;HTU21D;63874;47.230;39.620;2022-12-29T06:01:54;1.71;76.63
75281;HTU21D;63874;47.230;39.620;2022-12-29T06:04:20;1.71;76.65
75281;HTU21D;63874;47.230;39.620;2022-12-29T06:07:04;1.63;76.60
75281;HTU21D;63874;47.230;39.620;2022-12-29T06:09:40;1.56;76.84
75281;HTU21D;63874;47.230;39.620;2022-12-29T06:12:24;1.54;76.96
75281;HTU21D;63874;47.230;39.620;2022-12-29T06:14:52;1.49;77.05
75281;HTU21D;63874;47.230;39.620;2022-12-29T06:17:18;1.46;77.31
75281;HTU21D;63874;47.230;39.620;2022-12-29T06:19:44;1.43;77.28
75281;HTU21D;63874;47.230;39.620;2022-12-29T06:22:10;1.41;77.49
75281;HTU21D;63874;47.230;39.620;2022-12-29T06:24:39;1.42;77.56
75281;HTU21D;63874;47.230;39.620;2022-12-29T06:27:23;1.43;77.61
75281;HTU21D;63874;47.230;39.620;2022-12-29T06:29:51;1.46;77.69
75281;HTU21D;63874;47.230;39.620;2022-12-29T06:32:17;1.46;78.06
75281;HTU21D;63874;47.230;39.620;2022-12-29T06:34:47;1.45;78.01
75281;HTU21D;63874;47.230;39.620;2022-12-29T06:37:35;1.43;78.32
75281;HTU21D;63874;47.230;39.620;2022-12-29T06:40:01;1.47;78.63
75281;HTU21D;63874;47.230;39.620;2022-12-29T06:42:38;1.47;78.53
75281;HTU21D;63874;47.230;39.620;2022-12-29T06:45:25;1.51;78.74
75281;HTU21D;63874;47.230;39.620;2022-12-29T06:47:51;1.54;78.94
75281;HTU21D;63874;47.230;39.620;2022-12-29T06:50:17;1.57;78.79
75281;HTU21D;63874;47.230;39.620;2022-12-29T06:52:42;1.63;79.04
75281;HTU21D;63874;47.230;39.620;2022-12-29T06:55:08;1.66;78.91
75281;HTU21D;63874;47.230;39.620;2022-12-29T06:57:34;1.68;78.95
75281;HTU21D;63874;47.230;39.620;2022-12-29T07:00:00;1.75;79.34
75281;HTU21D;63874;47.230;39.620;2022-12-29T07:02:26;1.77;79.01
75281;HTU21D;63874;47.230;39.620;2022-12-29T07:04:52;1.78;79.25
75281;HTU21D;63874;47.230;39.620;2022-12-29T07:07:19;1.83;79.33
75281;HTU21D;63874;47.230;39.620;2022-12-29T07:09:45;1.86;79.44
75281;HTU21D;63874;47.230;39.620;2022-12-29T07:12:30;1.93;79.24
75281;HTU21D;63874;47.230;39.620;2022-12-29T07:14:56;1.99;79.53
75281;HTU21D;63874;47.230;39.620;2022-12-29T07:17:40;2.00;79.37
75281;HTU21D;63874;47.230;39.620;2022-12-29T07:20:06;1.99;79.31
75281;HTU21D;63874;47.230;39.620;2022-12-29T07:22:32;2.00;79.55
75281;HTU21D;63874;47.230;39.620;2022-12-29T07:24:58;2.02;79.81
75281;HTU21D;63874;47.230;39.620;2022-12-29T07:27:24;2.03;79.57
75281;HTU21D;63874;47.230;39.620;2022-12-29T07:30:12;2.03;79.69
75281;HTU21D;63874;47.230;39.620;2022-12-29T07:32:38;2.02;79.71
75281;HTU21D;63874;47.230;39.620;2022-12-29T07:35:04;2.00;79.97
75281;HTU21D;63874;47.230;39.620;2022-12-29T07:37:30;1.96;79.92
75281;HTU21D;63874;47.230;39.620;2022-12-29T07:39:56;1.88;80.09
75281;HTU21D;63874;47.230;39.620;2022-12-29T07:42:22;1.94;80.33
75281;HTU21D;63874;47.230;39.620;2022-12-29T07:44:51;1.96;80.49
75281;HTU21D;63874;47.230;39.620;2022-12-29T07:47:50;2.05;80.58
75281;HTU21D;63874;47.230;39.620;2022-12-29T07:50:16;2.15;80.67
75281;HTU21D;63874;47.230;39.620;2022-12-29T07:53:00;2.30;80.50
75281;HTU21D;63874;47.230;39.620;2022-12-29T07:55:45;2.44;80.17
75281;HTU21D;63874;47.230;39.620;2022-12-29T07:58:10;2.50;79.75
75281;HTU21D;63874;47.230;39.620;2022-12-29T08:00:37;2.54;79.72
75281;HTU21D;63874;47.230;39.620;2022-12-29T08:03:04;2.64;79.88
75281;HTU21D;63874;47.230;39.620;2022-12-29T08:05:31;2.80;79.91
75281;HTU21D;63874;47.230;39.620;2022-12-29T08:07:58;2.98;79.82
75281;HTU21D;63874;47.230;39.620;2022-12-29T08:10:24;3.20;79.43
75281;HTU21D;63874;47.230;39.620;2022-12-29T08:12:50;3.41;78.94
75281;HTU21D;63874;47.230;39.620;2022-12-29T08:15:16;3.60;78.37
75281;HTU21D;63874;47.230;39.620;2022-12-29T08:17:41;3.75;77.94
75281;HTU21D;63874;47.230;39.620;2022-12-29T08:20:07;3.88;77.63
75281;HTU21D;63874;47.230;39.620;2022-12-29T08:22:33;3.97;77.11
75281;HTU21D;63874;47.230;39.620;2022-12-29T08:24:59;4.03;76.95
75281;HTU21D;63874;47.230;39.620;2022-12-29T08:27:26;4.02;76.95
75281;HTU21D;63874;47.230;39.620;2022-12-29T08:29:52;4.00;76.63
75281;HTU21D;63874;47.230;39.620;2022-12-29T08:32:18;3.98;76.52
75281;HTU21D;63874;47.230;39.620;2022-12-29T08:34:43;3.98;76.14
75281;HTU21D;63874;47.230;39.620;2022-12-29T08:37:09;3.93;76.15
75281;HTU21D;63874;47.230;39.620;2022-12-29T08:39:35;3.94;75.87
75281;HTU21D;63874;47.230;39.620;2022-12-29T08:42:01;3.91;76.08
75281;HTU21D;63874;47.230;39.620;2022-12-29T08:44:27;3.93;76.47
75281;HTU21D;63874;47.230;39.620;2022-12-29T08:46:53;3.94;76.35
75281;HTU21D;63874;47.230;39.620;2022-12-29T08:49:19;4.04;76.33
75281;HTU21D;63874;47.230;39.620;2022-12-29T08:51:45;4.16;76.39
75281;HTU21D;63874;47.230;39.620;2022-12-29T08:54:29;4.35;75.82
75281;HTU21D;63874;47.230;39.620;2022-12-29T08:56:55;4.43;75.56
75281;HTU21D;63874;47.230;39.620;2022-12-29T08:59:55;4.48;74.75
75281;HTU21D;63874;47.230;39.620;2022-12-29T09:02:40;4.50;74.72
75281;HTU21D;63874;47.230;39.620;2022-12-29T09:05:06;4.49;75.03
75281;HTU21D;63874;47.230;39.620;2022-12-29T09:07:32;4.57;75.40
75281;HTU21D;63874;47.230;39.620;2022-12-29T09:09:58;4.60;74.95
75281;HTU21D;63874;47.230;39.620;2022-12-29T09:12:42;4.64;74.64
75281;HTU21D;63874;47.230;39.620;2022-12-29T09:15:08;4.66;74.57
75281;HTU21D;63874;47.230;39.620;2022-12-29T09:17:34;4.67;74.20
75281;HTU21D;63874;47.230;39.620;2022-12-29T09:20:15;4.68;73.60
75281;HTU21D;63874;47.230;39.620;2022-12-29T09:22:43;4.66;73.48
75281;HTU21D;63874;47.230;39.620;2022-12-29T09:25:10;4.65;73.44
75281;HTU21D;63874;47.230;39.620;2022-12-29T09:27:36;4.63;73.44
75281;HTU21D;63874;47.230;39.620;2022-12-29T09:30:04;4.60;73.19
75281;HTU21D;63874;47.230;39.620;2022-12-29T09:32:32;4.60;73.03
75281;HTU21D;63874;47.230;39.620;2022-12-29T09:34:58;4.54;72.80
75281;HTU21D;63874;47.230;39.620;2022-12-29T09:37:24;4.48;72.41
75281;HTU21D;63874;47.230;39.620;2022-12-29T09:39:50;4.43;72.53
75281;HTU21D;63874;47.230;39.620;2022-12-29T09:45:29;4.32;73.14
75281;HTU21D;63874;47.230;39.620;2022-12-29T09:47:58;4.33;73.19
75281;HTU21D;63874;47.230;39.620;2022-12-29T09:50:44;4.32;73.07
75281;HTU21D;63874;47.230;39.620;2022-12-29T09:53:50;4.28;73.37
75281;HTU21D;63874;47.230;39.620;2022-12-29T09:56:20;4.29;73.48
75281;HTU21D;63874;47.230;39.620;2022-12-29T10:04:29;4.18;73.12
75281;HTU21D;63874;47.230;39.620;2022-12-29T10:07:04;4.16;73.30
75281;HTU21D;63874;47.230;39.620;2022-12-29T10:12:12;4.10;73.18
75281;HTU21D;63874;47.230;39.620;2022-12-29T10:17:51;4.03;73.73
75281;HTU21D;63874;47.230;39.620;2022-12-29T10:21:24;4.04;73.64
75281;HTU21D;63874;47.230;39.620;2022-12-29T10:23:48;4.03;73.63
75281;HTU21D;63874;47.230;39.620;2022-12-29T10:26:42;4.01;73.58
75281;HTU21D;63874;47.230;39.620;2022-12-29T10:29:19;3.99;73.51
75281;HTU21D;63874;47.230;39.620;2022-12-29T10:31:54;3.98;73.74
75281;HTU21D;63874;47.230;39.620;2022-12-29T10:34:36;3.99;73.81
75281;HTU21D;63874;47.230;39.620;2022-12-29T10:37:15;4.03;73.86
75281;HTU21D;63874;47.230;39.620;2022-12-29T10:39:47;4.07;74.04
75281;HTU21D;63874;47.230;39.620;2022-12-29T10:42:28;4.10;73.92
75281;HTU21D;63874;47.230;39.620;2022-12-29T10:44:55;4.16;73.61
75281;HTU21D;63874;47.230;39.620;2022-12-29T10:47:26;4.13;73.61
75281;HTU21D;63874;47.230;39.620;2022-12-29T10:49:53;4.15;73.40
75281;HTU21D;63874;47.230;39.620;2022-12-29T10:52:21;4.15;73.25
75281;HTU21D;63874;47.230;39.620;2022-12-29T10:57:26;4.06;73.38
75281;HTU21D;63874;47.230;39.620;2022-12-29T10:59:52;4.06;73.41
75281;HTU21D;63874;47.230;39.620;2022-12-29T11:02:43;4.06;73.57
75281;HTU21D;63874;47.230;39.620;2022-12-29T11:05:37;4.07;73.64
75281;HTU21D;63874;47.230;39.620;2022-12-29T11:08:12;4.08;73.83
75281;HTU21D;63874;47.230;39.620;2022-12-29T11:10:58;4.12;73.54
75281;HTU21D;63874;47.230;39.620;2022-12-29T11:13:47;4.09;73.74
75281;HTU21D;63874;47.230;39.620;2022-12-29T11:16:13;4.04;73.80
75281;HTU21D;63874;47.230;39.620;2022-12-29T11:18:40;3.98;73.87
75281;HTU21D;63874;47.230;39.620;2022-12-29T11:24:00;3.82;74.11
75281;HTU21D;63874;47.230;39.620;2022-12-29T11:26:28;3.77;74.10
75281;HTU21D;63874;47.230;39.620;2022-12-29T11:29:08;3.75;74.29
75281;HTU21D;63874;47.230;39.620;2022-12-29T11:31:45;3.79;74.41
75281;HTU21D;63874;47.230;39.620;2022-12-29T11:34:34;3.92;74.38
75281;HTU21D;63874;47.230;39.620;2022-12-29T11:45:19;4.50;73.78
75281;HTU21D;63874;47.230;39.620;2022-12-29T11:47:57;4.63;73.15
75281;HTU21D;63874;47.230;39.620;2022-12-29T11:50:33;4.71;72.67
75281;HTU21D;63874;47.230;39.620;2022-12-29T11:53:45;4.72;72.92
75281;HTU21D;63874;47.230;39.620;2022-12-29T11:55:58;4.75;73.01
75281;HTU21D;63874;47.230;39.620;2022-12-29T11:58:33;4.75;72.64
75281;HTU21D;63874;47.230;39.620;2022-12-29T12:01:40;4.76;72.53
75281;HTU21D;63874;47.230;39.620;2022-12-29T12:04:15;4.78;72.25
75281;HTU21D;63874;47.230;39.620;2022-12-29T12:06:56;4.77;71.84
75281;HTU21D;63874;47.230;39.620;2022-12-29T12:09:31;4.74;71.30
75281;HTU21D;63874;47.230;39.620;2022-12-29T12:11:59;4.74;70.85
75281;HTU21D;63874;47.230;39.620;2022-12-29T12:14:46;4.73;70.94
75281;HTU21D;63874;47.230;39.620;2022-12-29T12:17:52;4.69;71.26
75281;HTU21D;63874;47.230;39.620;2022-12-29T12:20:32;4.67;71.10
75281;HTU21D;63874;47.230;39.620;2022-12-29T12:23:27;4.66;71.17
75281;HTU21D;63874;47.230;39.620;2022-12-29T12:26:04;4.61;71.35
75281;HTU21D;63874;47.230;39.620;2022-12-29T12:31:56;4.53;71.53
75281;HTU21D;63874;47.230;39.620;2022-12-29T12:34:43;4.51;70.97
75281;HTU21D;63874;47.230;39.620;2022-12-29T12:40:34;4.34;70.99
75281;HTU21D;63874;47.230;39.620;2022-12-29T12:51:39;4.08;71.20
75281;HTU21D;63874;47.230;39.620;2022-12-29T12:59:49;3.99;71.29
75281;HTU21D;63874;47.230;39.620;2022-12-29T13:05:20;3.93;71.71
75281;HTU21D;63874;47.230;39.620;2022-12-29T13:24:41;3.82;72.78
75281;HTU21D;63874;47.230;39.620;2022-12-29T13:30:18;3.79;73.12
75281;HTU21D;63874;47.230;39.620;2022-12-29T13:35:22;3.70;73.59
75281;HTU21D;63874;47.230;39.620;2022-12-29T13:40:43;3.61;74.09
75281;HTU21D;63874;47.230;39.620;2022-12-29T13:43:12;3.62;74.39
75281;HTU21D;63874;47.230;39.620;2022-12-29T13:45:39;3.64;74.50
75281;HTU21D;63874;47.230;39.620;2022-12-29T13:49:10;3.65;74.57
75281;HTU21D;63874;47.230;39.620;2022-12-29T13:51:23;3.67;74.60
75281;HTU21D;63874;47.230;39.620;2022-12-29T13:57:00;3.69;74.93
75281;HTU21D;63874;47.230;39.620;2022-12-29T13:59:54;3.68;74.94
75281;HTU21D;63874;47.230;39.620;2022-12-29T14:03:12;3.70;75.01
75281;HTU21D;63874;47.230;39.620;2022-12-29T14:05:45;3.68;75.02
75281;HTU21D;63874;47.230;39.620;2022-12-29T14:08:17;3.67;75.04
75281;HTU21D;63874;47.230;39.620;2022-12-29T14:10:48;3.65;75.13
75281;HTU21D;63874;47.230;39.620;2022-12-29T14:13:16;3.65;75.19
75281;HTU21D;63874;47.230;39.620;2022-12-29T14:16:01;3.67;75.13
75281;HTU21D;63874;47.230;39.620;2022-12-29T14:18:32;3.64;75.18
75281;HTU21D;63874;47.230;39.620;2022-12-29T14:21:09;3.64;75.12
75281;HTU21D;63874;47.230;39.620;2022-12-29T14:23:41;3.63;75.12
75281;HTU21D;63874;47.230;39.620;2022-12-29T14:28:55;3.61;75.18
75281;HTU21D;63874;47.230;39.620;2022-12-29T14:37:26;3.48;75.40
75281;HTU21D;63874;47.230;39.620;2022-12-29T14:40:24;3.46;75.50
75281;HTU21D;63874;47.230;39.620;2022-12-29T14:42:54;3.39;75.66
75281;HTU21D;63874;47.230;39.620;2022-12-29T14:47:50;3.36;75.79
75281;HTU21D;63874;47.230;39.620;2022-12-29T14:50:42;3.32;75.96
75281;HTU21D;63874;47.230;39.620;2022-12-29T14:53:45;3.31;76.08
75281;HTU21D;63874;47.230;39.620;2022-12-29T14:56:13;3.29;76.05
75281;HTU21D;63874;47.230;39.620;2022-12-29T14:58:52;3.30;76.17
75281;HTU21D;63874;47.230;39.620;2022-12-29T15:01:45;3.28;76.22
75281;HTU21D;63874;47.230;39.620;2022-12-29T15:04:27;3.26;76.41
75281;HTU21D;63874;47.230;39.620;2022-12-29T15:06:55;3.20;76.52
75281;HTU21D;63874;47.230;39.620;2022-12-29T15:09:31;3.19;76.57
75281;HTU21D;63874;47.230;39.620;2022-12-29T15:12:22;3.18;76.74
75281;HTU21D;63874;47.230;39.620;2022-12-29T15:14:55;3.17;76.98
75281;HTU21D;63874;47.230;39.620;2022-12-29T15:19:55;3.17;77.02
75281;HTU21D;63874;47.230;39.620;2022-12-29T15:22:21;3.16;77.03
75281;HTU21D;63874;47.230;39.620;2022-12-29T15:24:50;3.14;77.11
75281;HTU21D;63874;47.230;39.620;2022-12-29T15:27:24;3.13;77.17
75281;HTU21D;63874;47.230;39.620;2022-12-29T15:29:59;3.10;77.34
75281;HTU21D;63874;47.230;39.620;2022-12-29T15:32:45;3.06;77.39
75281;HTU21D;63874;47.230;39.620;2022-12-29T15:35:36;3.03;77.73
75281;HTU21D;63874;47.230;39.620;2022-12-29T15:38:26;2.99;77.78
75281;HTU21D;63874;47.230;39.620;2022-12-29T15:46:36;2.93;78.14
75281;HTU21D;63874;47.230;39.620;2022-12-29T15:49:06;2.93;78.14
75281;HTU21D;63874;47.230;39.620;2022-12-29T15:51:38;2.91;78.21
75281;HTU21D;63874;47.230;39.620;2022-12-29T15:54:05;2.91;78.27
75281;HTU21D;63874;47.230;39.620;2022-12-29T15:56:32;2.89;78.40
75281;HTU21D;63874;47.230;39.620;2022-12-29T15:59:00;2.91;78.34
75281;HTU21D;63874;47.230;39.620;2022-12-29T16:01:36;2.94;78.47
75281;HTU21D;63874;47.230;39.620;2022-12-29T16:04:07;2.93;78.44
75281;HTU21D;63874;47.230;39.620;2022-12-29T16:06:36;2.97;78.52
75281;HTU21D;63874;47.230;39.620;2022-12-29T16:09:33;2.99;78.71
75281;HTU21D;63874;47.230;39.620;2022-12-29T16:12:13;2.99;78.69
75281;HTU21D;63874;47.230;39.620;2022-12-29T16:15:02;2.97;78.71
75281;HTU21D;63874;47.230;39.620;2022-12-29T16:17:31;2.96;78.72
75281;HTU21D;63874;47.230;39.620;2022-12-29T16:20:06;2.95;78.82
75281;HTU21D;63874;47.230;39.620;2022-12-29T16:22:41;2.91;78.94
75281;HTU21D;63874;47.230;39.620;2022-12-29T16:25:19;2.95;78.91
75281;HTU21D;63874;47.230;39.620;2022-12-29T16:27:47;2.91;79.00
75281;HTU21D;63874;47.230;39.620;2022-12-29T16:30:33;2.93;79.05
75281;HTU21D;63874;47.230;39.620;2022-12-29T16:33:50;2.90;78.98
75281;HTU21D;63874;47.230;39.620;2022-12-29T16:36:25;2.88;78.94
75281;HTU21D;63874;47.230;39.620;2022-12-29T16:39:23;2.84;79.12
75281;HTU21D;63874;47.230;39.620;2022-12-29T16:41:51;2.82;79.08
75281;HTU21D;63874;47.230;39.620;2022-12-29T16:47:02;2.79;79.13
75281;HTU21D;63874;47.230;39.620;2022-12-29T16:49:32;2.71;79.09
75281;HTU21D;63874;47.230;39.620;2022-12-29T16:52:21;2.71;79.36
75281;HTU21D;63874;47.230;39.620;2022-12-29T16:54:51;2.72;79.49
75281;HTU21D;63874;47.230;39.620;2022-12-29T16:57:28;2.78;79.54
75281;HTU21D;63874;47.230;39.620;2022-12-29T16:59:58;2.80;79.57
75281;HTU21D;63874;47.230;39.620;2022-12-29T17:02:27;2.82;79.60
75281;HTU21D;63874;47.230;39.620;2022-12-29T17:04:53;2.84;79.56
75281;HTU21D;63874;47.230;39.620;2022-12-29T17:07:23;2.85;79.69
75281;HTU21D;63874;47.230;39.620;2022-12-29T17:09:49;2.81;79.48
75281;HTU21D;63874;47.230;39.620;2022-12-29T17:12:27;2.78;79.59
75281;HTU21D;63874;47.230;39.620;2022-12-29T17:14:59;2.74;79.63
75281;HTU21D;63874;47.230;39.620;2022-12-29T17:17:32;2.69;79.71
75281;HTU21D;63874;47.230;39.620;2022-12-29T17:20:14;2.66;79.73
75281;HTU21D;63874;47.230;39.620;2022-12-29T17:22:40;2.64;79.75
75281;HTU21D;63874;47.230;39.620;2022-12-29T17:25:08;2.65;79.78
75281;HTU21D;63874;47.230;39.620;2022-12-29T17:27:41;2.62;79.79
75281;HTU21D;63874;47.230;39.620;2022-12-29T17:30:28;2.58;79.88
75281;HTU21D;63874;47.230;39.620;2022-12-29T17:33:03;2.57;79.93
75281;HTU21D;63874;47.230;39.620;2022-12-29T17:35:29;2.56;79.92
75281;HTU21D;63874;47.230;39.620;2022-12-29T17:37:55;2.53;79.99
75281;HTU21D;63874;47.230;39.620;2022-12-29T17:40:26;2.53;80.23
75281;HTU21D;63874;47.230;39.620;2022-12-29T17:42:53;2.47;80.34
75281;HTU21D;63874;47.230;39.620;2022-12-29T17:45:24;2.41;80.27
75281;HTU21D;63874;47.230;39.620;2022-12-29T17:47:50;2.38;80.47
75281;HTU21D;63874;47.230;39.620;2022-12-29T17:50:17;2.41;80.78
75281;HTU21D;63874;47.230;39.620;2022-12-29T17:52:49;2.42;80.52
75281;HTU21D;63874;47.230;39.620;2022-12-29T17:55:18;2.42;80.58
75281;HTU21D;63874;47.230;39.620;2022-12-29T17:57:44;2.44;80.56
75281;HTU21D;63874;47.230;39.620;2022-12-29T18:00:20;2.46;80.49
75281;HTU21D;63874;47.230;39.620;2022-12-29T18:02:46;2.47;80.38
75281;HTU21D;63874;47.230;39.620;2022-12-29T18:07:57;2.46;80.20
75281;HTU21D;63874;47.230;39.620;2022-12-29T18:10:26;2.47;80.17
75281;HTU21D;63874;47.230;39.620;2022-12-29T18:12:54;2.45;80.14
75281;HTU21D;63874;47.230;39.620;2022-12-29T18:15:32;2.45;80.10
75281;HTU21D;63874;47.230;39.620;2022-12-29T18:20:34;2.44;80.09